sensor_id;sensor_type;location;lat;lon;timestamp;P1;durP1;ratioP1;P2;durP2;ratioP2
63818;SDS011;49970;54.976;73.248;2022-08-19T00:01:46;5.78;;;1.08;;
63818;SDS011;49970;54.976;73.248;2022-08-19T00:04:14;3.40;;;0.60;;
63818;SDS011;49970;54.976;73.248;2022-08-19T00:06:42;0.60;;;0.60;;
63818;SDS011;49970;54.976;73.248;2022-08-19T00:09:29;3.88;;;0.82;;
63818;SDS011;49970;54.976;73.248;2022-08-19T00:11:56;2.17;;;0.80;;
63818;SDS011;49970;54.976;73.248;2022-08-19T00:14:24;1.25;;;0.70;;
63818;SDS011;49970;54.976;73.248;2022-08-19T00:16:51;6.70;;;0.88;;
63818;SDS011;49970;54.976;73.248;2022-08-19T00:19:20;1.67;;;0.95;;
63818;SDS011;49970;54.976;73.248;2022-08-19T00:21:47;0.70;;;0.70;;
63818;SDS011;49970;54.976;73.248;2022-08-19T00:24:13;1.40;;;0.65;;
63818;SDS011;49970;54.976;73.248;2022-08-19T00:26:51;8.98;;;0.70;;
63818;SDS011;49970;54.976;73.248;2022-08-19T00:29:19;2.70;;;0.68;;
63818;SDS011;49970;54.976;73.248;2022-08-19T00:31:47;2.03;;;0.82;;
63818;SDS011;49970;54.976;73.248;2022-08-19T00:34:13;6.63;;;0.60;;
63818;SDS011;49970;54.976;73.248;2022-08-19T00:36:41;3.15;;;0.50;;
63818;SDS011;49970;54.976;73.248;2022-08-19T00:39:08;7.00;;;0.75;;
63818;SDS011;49970;54.976;73.248;2022-08-19T00:41:35;0.98;;;0.55;;
63818;SDS011;49970;54.976;73.248;2022-08-19T00:44:08;0.77;;;0.60;;
63818;SDS011;49970;54.976;73.248;2022-08-19T00:46:55;0.63;;;0.50;;
63818;SDS011;49970;54.976;73.248;2022-08-19T00:49:29;0.70;;;0.70;;
63818;SDS011;49970;54.976;73.248;2022-08-19T00:52:02;4.97;;;1.20;;
63818;SDS011;49970;54.976;73.248;2022-08-19T00:54:32;6.70;;;2.15;;
63818;SDS011;49970;54.976;73.248;2022-08-19T00:56:59;6.60;;;2.35;;
63818;SDS011;49970;54.976;73.248;2022-08-19T00:59:27;14.15;;;1.75;;
63818;SDS011;49970;54.976;73.248;2022-08-19T01:01:54;7.13;;;1.50;;
63818;SDS011;49970;54.976;73.248;2022-08-19T01:04:21;5.93;;;1.40;;
63818;SDS011;49970;54.976;73.248;2022-08-19T01:06:47;2.25;;;0.90;;
63818;SDS011;49970;54.976;73.248;2022-08-19T01:09:14;6.43;;;0.80;;
63818;SDS011;49970;54.976;73.248;2022-08-19T01:11:41;6.53;;;1.15;;
63818;SDS011;49970;54.976;73.248;2022-08-19T01:14:19;4.32;;;0.90;;
63818;SDS011;49970;54.976;73.248;2022-08-19T01:16:46;1.58;;;0.70;;
63818;SDS011;49970;54.976;73.248;2022-08-19T01:19:17;5.28;;;1.00;;
63818;SDS011;49970;54.976;73.248;2022-08-19T01:24:54;4.47;;;1.08;;
63818;SDS011;49970;54.976;73.248;2022-08-19T01:27:38;3.33;;;0.70;;
63818;SDS011;49970;54.976;73.248;2022-08-19T01:30:07;2.65;;;0.70;;
63818;SDS011;49970;54.976;73.248;2022-08-19T01:32:35;2.63;;;0.80;;
63818;SDS011;49970;54.976;73.248;2022-08-19T01:35:07;1.00;;;0.90;;
63818;SDS011;49970;54.976;73.248;2022-08-19T01:37:44;4.57;;;0.90;;
63818;SDS011;49970;54.976;73.248;2022-08-19T01:40:18;10.73;;;0.70;;
63818;SDS011;49970;54.976;73.248;2022-08-19T01:42:48;1.33;;;0.60;;
63818;SDS011;49970;54.976;73.248;2022-08-19T01:45:26;6.20;;;0.70;;
63818;SDS011;49970;54.976;73.248;2022-08-19T01:47:59;2.42;;;0.85;;
63818;SDS011;49970;54.976;73.248;2022-08-19T01:50:36;10.10;;;1.00;;
63818;SDS011;49970;54.976;73.248;2022-08-19T01:53:04;5.65;;;1.15;;
63818;SDS011;49970;54.976;73.248;2022-08-19T01:55:33;1.65;;;0.75;;
63818;SDS011;49970;54.976;73.248;2022-08-19T01:58:18;2.78;;;0.80;;
63818;SDS011;49970;54.976;73.248;2022-08-19T02:00:58;4.32;;;0.80;;
63818;SDS011;49970;54.976;73.248;2022-08-19T02:03:30;7.22;;;0.98;;
63818;SDS011;49970;54.976;73.248;2022-08-19T02:06:07;3.70;;;0.60;;
63818;SDS011;49970;54.976;73.248;2022-08-19T02:08:34;2.05;;;0.63;;
63818;SDS011;49970;54.976;73.248;2022-08-19T02:11:06;20.48;;;1.38;;
63818;SDS011;49970;54.976;73.248;2022-08-19T02:13:33;2.17;;;0.68;;
63818;SDS011;49970;54.976;73.248;2022-08-19T02:16:00;11.95;;;0.95;;
63818;SDS011;49970;54.976;73.248;2022-08-19T02:18:26;4.40;;;0.55;;
63818;SDS011;49970;54.976;73.248;2022-08-19T02:21:01;3.35;;;0.60;;
63818;SDS011;49970;54.976;73.248;2022-08-19T02:23:28;3.80;;;0.63;;
63818;SDS011;49970;54.976;73.248;2022-08-19T02:25:54;12.02;;;0.88;;
63818;SDS011;49970;54.976;73.248;2022-08-19T02:28:25;6.22;;;0.70;;
63818;SDS011;49970;54.976;73.248;2022-08-19T02:30:52;7.43;;;0.95;;
63818;SDS011;49970;54.976;73.248;2022-08-19T02:33:18;6.82;;;1.27;;
63818;SDS011;49970;54.976;73.248;2022-08-19T02:35:45;7.75;;;1.50;;
63818;SDS011;49970;54.976;73.248;2022-08-19T02:38:23;5.07;;;0.90;;
63818;SDS011;49970;54.976;73.248;2022-08-19T02:41:02;1.08;;;0.93;;
63818;SDS011;49970;54.976;73.248;2022-08-19T02:43:32;10.35;;;0.90;;
63818;SDS011;49970;54.976;73.248;2022-08-19T02:46:11;12.68;;;0.90;;
63818;SDS011;49970;54.976;73.248;2022-08-19T02:48:48;7.93;;;0.90;;
63818;SDS011;49970;54.976;73.248;2022-08-19T02:51:23;2.00;;;0.73;;
63818;SDS011;49970;54.976;73.248;2022-08-19T02:53:52;6.32;;;0.90;;
63818;SDS011;49970;54.976;73.248;2022-08-19T02:56:19;3.60;;;1.20;;
63818;SDS011;49970;54.976;73.248;2022-08-19T02:58:57;4.05;;;1.05;;
63818;SDS011;49970;54.976;73.248;2022-08-19T03:01:28;1.85;;;0.77;;
63818;SDS011;49970;54.976;73.248;2022-08-19T03:03:57;2.50;;;0.60;;
63818;SDS011;49970;54.976;73.248;2022-08-19T03:06:25;8.68;;;0.70;;
63818;SDS011;49970;54.976;73.248;2022-08-19T03:08:52;0.93;;;0.70;;
63818;SDS011;49970;54.976;73.248;2022-08-19T03:11:20;4.30;;;0.77;;
63818;SDS011;49970;54.976;73.248;2022-08-19T03:13:48;2.40;;;1.10;;
63818;SDS011;49970;54.976;73.248;2022-08-19T03:16:21;3.88;;;0.80;;
63818;SDS011;49970;54.976;73.248;2022-08-19T03:18:48;14.98;;;1.10;;
63818;SDS011;49970;54.976;73.248;2022-08-19T03:21:21;6.00;;;1.30;;
63818;SDS011;49970;54.976;73.248;2022-08-19T03:23:53;4.50;;;1.00;;
63818;SDS011;49970;54.976;73.248;2022-08-19T03:26:20;15.55;;;1.02;;
63818;SDS011;49970;54.976;73.248;2022-08-19T03:28:47;12.48;;;1.33;;
63818;SDS011;49970;54.976;73.248;2022-08-19T03:31:16;4.72;;;0.80;;
63818;SDS011;49970;54.976;73.248;2022-08-19T03:33:45;11.43;;;1.20;;
63818;SDS011;49970;54.976;73.248;2022-08-19T03:36:16;16.65;;;1.25;;
63818;SDS011;49970;54.976;73.248;2022-08-19T03:38:47;8.55;;;1.23;;
63818;SDS011;49970;54.976;73.248;2022-08-19T03:41:16;1.50;;;1.02;;
63818;SDS011;49970;54.976;73.248;2022-08-19T03:43:46;3.90;;;1.20;;
63818;SDS011;49970;54.976;73.248;2022-08-19T03:46:15;8.88;;;1.38;;
63818;SDS011;49970;54.976;73.248;2022-08-19T03:48:43;9.50;;;1.65;;
63818;SDS011;49970;54.976;73.248;2022-08-19T03:51:43;8.90;;;1.80;;
63818;SDS011;49970;54.976;73.248;2022-08-19T03:54:05;6.88;;;1.30;;
63818;SDS011;49970;54.976;73.248;2022-08-19T03:56:33;11.15;;;1.30;;
63818;SDS011;49970;54.976;73.248;2022-08-19T03:59:01;8.88;;;1.58;;
63818;SDS011;49970;54.976;73.248;2022-08-19T04:01:28;12.88;;;1.50;;
63818;SDS011;49970;54.976;73.248;2022-08-19T04:04:05;9.68;;;1.83;;
63818;SDS011;49970;54.976;73.248;2022-08-19T04:06:32;10.77;;;1.60;;
63818;SDS011;49970;54.976;73.248;2022-08-19T04:09:02;18.08;;;1.73;;
63818;SDS011;49970;54.976;73.248;2022-08-19T04:11:31;15.57;;;1.67;;
63818;SDS011;49970;54.976;73.248;2022-08-19T04:14:01;3.60;;;1.33;;
63818;SDS011;49970;54.976;73.248;2022-08-19T04:16:29;20.25;;;1.98;;
63818;SDS011;49970;54.976;73.248;2022-08-19T04:18:56;6.88;;;1.58;;
63818;SDS011;49970;54.976;73.248;2022-08-19T04:21:26;3.63;;;1.13;;
63818;SDS011;49970;54.976;73.248;2022-08-19T04:23:53;10.10;;;1.00;;
63818;SDS011;49970;54.976;73.248;2022-08-19T04:26:22;7.95;;;1.00;;
63818;SDS011;49970;54.976;73.248;2022-08-19T04:28:51;16.75;;;1.20;;
63818;SDS011;49970;54.976;73.248;2022-08-19T04:31:20;8.48;;;0.80;;
63818;SDS011;49970;54.976;73.248;2022-08-19T04:33:48;15.70;;;1.20;;
63818;SDS011;49970;54.976;73.248;2022-08-19T04:36:23;7.43;;;1.10;;
63818;SDS011;49970;54.976;73.248;2022-08-19T04:38:59;10.43;;;1.58;;
63818;SDS011;49970;54.976;73.248;2022-08-19T04:41:28;17.35;;;1.40;;
63818;SDS011;49970;54.976;73.248;2022-08-19T04:44:18;4.05;;;1.10;;
63818;SDS011;49970;54.976;73.248;2022-08-19T04:46:45;10.45;;;1.30;;
63818;SDS011;49970;54.976;73.248;2022-08-19T04:49:13;3.50;;;1.10;;
63818;SDS011;49970;54.976;73.248;2022-08-19T04:51:43;5.18;;;0.90;;
63818;SDS011;49970;54.976;73.248;2022-08-19T04:54:11;5.22;;;0.90;;
63818;SDS011;49970;54.976;73.248;2022-08-19T04:56:38;7.43;;;1.10;;
63818;SDS011;49970;54.976;73.248;2022-08-19T04:59:16;5.53;;;1.33;;
63818;SDS011;49970;54.976;73.248;2022-08-19T05:01:44;1.70;;;0.90;;
63818;SDS011;49970;54.976;73.248;2022-08-19T05:04:20;15.75;;;0.70;;
63818;SDS011;49970;54.976;73.248;2022-08-19T05:06:47;13.43;;;1.80;;
63818;SDS011;49970;54.976;73.248;2022-08-19T05:09:15;2.60;;;0.73;;
63818;SDS011;49970;54.976;73.248;2022-08-19T05:11:41;17.63;;;1.40;;
63818;SDS011;49970;54.976;73.248;2022-08-19T05:14:08;17.23;;;1.83;;
63818;SDS011;49970;54.976;73.248;2022-08-19T05:16:38;2.40;;;0.80;;
63818;SDS011;49970;54.976;73.248;2022-08-19T05:19:05;2.97;;;0.57;;
63818;SDS011;49970;54.976;73.248;2022-08-19T05:21:50;12.40;;;1.00;;
63818;SDS011;49970;54.976;73.248;2022-08-19T05:24:35;5.05;;;1.75;;
63818;SDS011;49970;54.976;73.248;2022-08-19T05:27:03;11.23;;;2.58;;
63818;SDS011;49970;54.976;73.248;2022-08-19T05:29:31;9.50;;;1.63;;
63818;SDS011;49970;54.976;73.248;2022-08-19T05:32:00;9.80;;;1.20;;
63818;SDS011;49970;54.976;73.248;2022-08-19T05:34:30;6.15;;;1.33;;
63818;SDS011;49970;54.976;73.248;2022-08-19T05:36:59;14.00;;;1.60;;
63818;SDS011;49970;54.976;73.248;2022-08-19T05:39:27;1.13;;;0.82;;
63818;SDS011;49970;54.976;73.248;2022-08-19T05:41:56;5.90;;;1.08;;
63818;SDS011;49970;54.976;73.248;2022-08-19T05:44:25;6.13;;;0.60;;
63818;SDS011;49970;54.976;73.248;2022-08-19T05:46:52;5.18;;;0.77;;
63818;SDS011;49970;54.976;73.248;2022-08-19T05:49:21;20.63;;;1.10;;
63818;SDS011;49970;54.976;73.248;2022-08-19T05:51:49;7.45;;;0.88;;
63818;SDS011;49970;54.976;73.248;2022-08-19T05:54:16;13.25;;;0.98;;
63818;SDS011;49970;54.976;73.248;2022-08-19T05:56:46;9.15;;;1.27;;
63818;SDS011;49970;54.976;73.248;2022-08-19T05:59:20;8.82;;;0.70;;
63818;SDS011;49970;54.976;73.248;2022-08-19T06:01:47;2.05;;;0.65;;
63818;SDS011;49970;54.976;73.248;2022-08-19T06:04:23;7.60;;;0.85;;
63818;SDS011;49970;54.976;73.248;2022-08-19T06:06:51;3.15;;;0.95;;
63818;SDS011;49970;54.976;73.248;2022-08-19T06:11:51;3.83;;;0.90;;
63818;SDS011;49970;54.976;73.248;2022-08-19T06:14:24;3.97;;;0.97;;
63818;SDS011;49970;54.976;73.248;2022-08-19T06:16:56;3.08;;;0.95;;
63818;SDS011;49970;54.976;73.248;2022-08-19T06:19:27;4.88;;;1.27;;
63818;SDS011;49970;54.976;73.248;2022-08-19T06:21:58;2.13;;;0.80;;
63818;SDS011;49970;54.976;73.248;2022-08-19T06:24:26;6.18;;;0.73;;
63818;SDS011;49970;54.976;73.248;2022-08-19T06:26:54;1.45;;;0.82;;
63818;SDS011;49970;54.976;73.248;2022-08-19T06:29:23;0.70;;;0.70;;
63818;SDS011;49970;54.976;73.248;2022-08-19T06:31:56;3.75;;;0.63;;
63818;SDS011;49970;54.976;73.248;2022-08-19T06:34:24;14.90;;;0.73;;
63818;SDS011;49970;54.976;73.248;2022-08-19T06:36:54;20.33;;;0.93;;
63818;SDS011;49970;54.976;73.248;2022-08-19T06:39:25;4.45;;;0.90;;
63818;SDS011;49970;54.976;73.248;2022-08-19T06:41:55;13.17;;;0.97;;
63818;SDS011;49970;54.976;73.248;2022-08-19T06:44:23;4.78;;;0.70;;
63818;SDS011;49970;54.976;73.248;2022-08-19T06:46:55;2.67;;;0.70;;
63818;SDS011;49970;54.976;73.248;2022-08-19T06:49:22;8.18;;;0.90;;
63818;SDS011;49970;54.976;73.248;2022-08-19T06:51:49;11.13;;;1.00;;
63818;SDS011;49970;54.976;73.248;2022-08-19T06:54:16;11.52;;;1.02;;
63818;SDS011;49970;54.976;73.248;2022-08-19T06:56:52;20.20;;;1.20;;
63818;SDS011;49970;54.976;73.248;2022-08-19T06:59:19;22.88;;;1.67;;
63818;SDS011;49970;54.976;73.248;2022-08-19T07:01:53;5.43;;;2.05;;
63818;SDS011;49970;54.976;73.248;2022-08-19T07:04:24;10.68;;;1.02;;
63818;SDS011;49970;54.976;73.248;2022-08-19T07:06:58;5.18;;;0.98;;
63818;SDS011;49970;54.976;73.248;2022-08-19T07:09:28;1.38;;;0.95;;
63818;SDS011;49970;54.976;73.248;2022-08-19T07:11:55;2.30;;;0.98;;
63818;SDS011;49970;54.976;73.248;2022-08-19T07:14:23;9.38;;;1.45;;
63818;SDS011;49970;54.976;73.248;2022-08-19T07:16:53;5.55;;;1.30;;
63818;SDS011;49970;54.976;73.248;2022-08-19T07:19:21;9.25;;;1.60;;
63818;SDS011;49970;54.976;73.248;2022-08-19T07:21:49;13.73;;;1.50;;
63818;SDS011;49970;54.976;73.248;2022-08-19T07:24:18;3.95;;;1.30;;
63818;SDS011;49970;54.976;73.248;2022-08-19T07:29:19;8.35;;;2.55;;
63818;SDS011;49970;54.976;73.248;2022-08-19T07:31:51;17.45;;;2.42;;
63818;SDS011;49970;54.976;73.248;2022-08-19T07:34:18;12.05;;;1.65;;
63818;SDS011;49970;54.976;73.248;2022-08-19T07:36:44;7.72;;;1.80;;
63818;SDS011;49970;54.976;73.248;2022-08-19T07:39:16;14.30;;;2.30;;
63818;SDS011;49970;54.976;73.248;2022-08-19T07:41:45;18.25;;;2.50;;
63818;SDS011;49970;54.976;73.248;2022-08-19T07:44:13;8.10;;;1.70;;
63818;SDS011;49970;54.976;73.248;2022-08-19T07:46:46;5.47;;;2.05;;
63818;SDS011;49970;54.976;73.248;2022-08-19T07:49:16;18.58;;;2.58;;
63818;SDS011;49970;54.976;73.248;2022-08-19T07:51:50;16.98;;;2.08;;
63818;SDS011;49970;54.976;73.248;2022-08-19T07:54:22;4.70;;;1.95;;
63818;SDS011;49970;54.976;73.248;2022-08-19T07:56:49;14.27;;;3.53;;
63818;SDS011;49970;54.976;73.248;2022-08-19T07:59:17;9.20;;;3.13;;
63818;SDS011;49970;54.976;73.248;2022-08-19T08:01:45;26.75;;;2.53;;
63818;SDS011;49970;54.976;73.248;2022-08-19T08:04:11;12.13;;;2.15;;
63818;SDS011;49970;54.976;73.248;2022-08-19T08:07:07;14.70;;;2.15;;
63818;SDS011;49970;54.976;73.248;2022-08-19T08:09:52;6.50;;;1.80;;
63818;SDS011;49970;54.976;73.248;2022-08-19T08:12:20;15.68;;;2.75;;
63818;SDS011;49970;54.976;73.248;2022-08-19T08:14:52;10.57;;;2.22;;
63818;SDS011;49970;54.976;73.248;2022-08-19T08:17:21;2.08;;;1.88;;
63818;SDS011;49970;54.976;73.248;2022-08-19T08:19:49;6.53;;;2.10;;
63818;SDS011;49970;54.976;73.248;2022-08-19T08:22:17;14.30;;;1.77;;
63818;SDS011;49970;54.976;73.248;2022-08-19T08:25:04;5.47;;;2.20;;
63818;SDS011;49970;54.976;73.248;2022-08-19T08:27:36;5.72;;;1.48;;
63818;SDS011;49970;54.976;73.248;2022-08-19T08:30:06;3.33;;;2.13;;
63818;SDS011;49970;54.976;73.248;2022-08-19T08:32:36;6.10;;;2.58;;
63818;SDS011;49970;54.976;73.248;2022-08-19T08:35:04;7.82;;;2.20;;
63818;SDS011;49970;54.976;73.248;2022-08-19T08:37:32;16.15;;;2.30;;
63818;SDS011;49970;54.976;73.248;2022-08-19T08:39:58;8.75;;;2.33;;
63818;SDS011;49970;54.976;73.248;2022-08-19T08:42:32;24.52;;;2.38;;
63818;SDS011;49970;54.976;73.248;2022-08-19T08:47:35;3.63;;;2.40;;
63818;SDS011;49970;54.976;73.248;2022-08-19T08:50:05;6.70;;;2.30;;
63818;SDS011;49970;54.976;73.248;2022-08-19T08:52:39;16.20;;;2.07;;
63818;SDS011;49970;54.976;73.248;2022-08-19T08:55:13;14.27;;;2.13;;
63818;SDS011;49970;54.976;73.248;2022-08-19T09:00:37;22.02;;;2.08;;
63818;SDS011;49970;54.976;73.248;2022-08-19T09:03:10;4.15;;;1.88;;
63818;SDS011;49970;54.976;73.248;2022-08-19T09:05:56;4.32;;;1.80;;
63818;SDS011;49970;54.976;73.248;2022-08-19T09:11:55;8.63;;;2.10;;
63818;SDS011;49970;54.976;73.248;2022-08-19T09:15:13;11.05;;;2.00;;
63818;SDS011;49970;54.976;73.248;2022-08-19T09:17:28;9.73;;;2.08;;
63818;SDS011;49970;54.976;73.248;2022-08-19T09:20:02;8.77;;;2.28;;
63818;SDS011;49970;54.976;73.248;2022-08-19T09:22:43;11.65;;;3.58;;
63818;SDS011;49970;54.976;73.248;2022-08-19T09:25:13;12.18;;;4.05;;
63818;SDS011;49970;54.976;73.248;2022-08-19T09:27:52;8.23;;;2.58;;
63818;SDS011;49970;54.976;73.248;2022-08-19T09:30:31;10.02;;;2.53;;
63818;SDS011;49970;54.976;73.248;2022-08-19T09:33:04;5.13;;;2.10;;
63818;SDS011;49970;54.976;73.248;2022-08-19T09:35:31;13.45;;;2.72;;
63818;SDS011;49970;54.976;73.248;2022-08-19T09:37:59;5.28;;;2.88;;
63818;SDS011;49970;54.976;73.248;2022-08-19T09:40:26;30.20;;;3.53;;
63818;SDS011;49970;54.976;73.248;2022-08-19T09:42:54;12.77;;;4.47;;
63818;SDS011;49970;54.976;73.248;2022-08-19T09:45:22;33.38;;;6.00;;
63818;SDS011;49970;54.976;73.248;2022-08-19T09:47:49;5.00;;;4.50;;
63818;SDS011;49970;54.976;73.248;2022-08-19T09:50:18;16.52;;;4.80;;
63818;SDS011;49970;54.976;73.248;2022-08-19T09:52:44;19.95;;;4.75;;
63818;SDS011;49970;54.976;73.248;2022-08-19T09:55:16;19.98;;;5.28;;
63818;SDS011;49970;54.976;73.248;2022-08-19T09:57:43;22.13;;;5.97;;
63818;SDS011;49970;54.976;73.248;2022-08-19T10:00:09;12.45;;;5.78;;
63818;SDS011;49970;54.976;73.248;2022-08-19T10:02:36;19.23;;;5.90;;
63818;SDS011;49970;54.976;73.248;2022-08-19T10:05:02;20.70;;;5.97;;
63818;SDS011;49970;54.976;73.248;2022-08-19T10:07:47;11.80;;;5.57;;
63818;SDS011;49970;54.976;73.248;2022-08-19T10:10:14;17.02;;;5.22;;
63818;SDS011;49970;54.976;73.248;2022-08-19T10:12:41;10.15;;;5.53;;
63818;SDS011;49970;54.976;73.248;2022-08-19T10:15:08;11.88;;;4.95;;
63818;SDS011;49970;54.976;73.248;2022-08-19T10:17:34;7.13;;;4.97;;
63818;SDS011;49970;54.976;73.248;2022-08-19T10:20:01;12.18;;;5.63;;
63818;SDS011;49970;54.976;73.248;2022-08-19T10:22:30;11.15;;;5.68;;
63818;SDS011;49970;54.976;73.248;2022-08-19T10:24:56;9.38;;;5.65;;
63818;SDS011;49970;54.976;73.248;2022-08-19T10:27:23;11.30;;;5.68;;
63818;SDS011;49970;54.976;73.248;2022-08-19T10:29:55;9.27;;;5.38;;
63818;SDS011;49970;54.976;73.248;2022-08-19T10:32:21;6.90;;;5.13;;
63818;SDS011;49970;54.976;73.248;2022-08-19T10:34:48;9.68;;;5.07;;
63818;SDS011;49970;54.976;73.248;2022-08-19T10:37:17;13.93;;;9.90;;
63818;SDS011;49970;54.976;73.248;2022-08-19T10:39:45;11.52;;;8.65;;
63818;SDS011;49970;54.976;73.248;2022-08-19T10:42:13;23.13;;;8.88;;
63818;SDS011;49970;54.976;73.248;2022-08-19T10:44:40;8.80;;;6.28;;
63818;SDS011;49970;54.976;73.248;2022-08-19T10:47:07;9.57;;;6.13;;
63818;SDS011;49970;54.976;73.248;2022-08-19T10:49:34;6.63;;;5.53;;
63818;SDS011;49970;54.976;73.248;2022-08-19T10:52:20;6.00;;;5.47;;
63818;SDS011;49970;54.976;73.248;2022-08-19T10:55:05;7.90;;;4.80;;
63818;SDS011;49970;54.976;73.248;2022-08-19T10:57:53;14.93;;;5.95;;
63818;SDS011;49970;54.976;73.248;2022-08-19T11:00:20;9.32;;;5.60;;
63818;SDS011;49970;54.976;73.248;2022-08-19T11:02:48;9.32;;;6.30;;
63818;SDS011;49970;54.976;73.248;2022-08-19T11:05:15;9.13;;;4.88;;
63818;SDS011;49970;54.976;73.248;2022-08-19T11:07:43;4.93;;;4.50;;
63818;SDS011;49970;54.976;73.248;2022-08-19T11:10:15;6.78;;;5.47;;
63818;SDS011;49970;54.976;73.248;2022-08-19T11:12:44;5.93;;;5.07;;
63818;SDS011;49970;54.976;73.248;2022-08-19T11:15:12;14.35;;;4.95;;
63818;SDS011;49970;54.976;73.248;2022-08-19T11:17:38;10.40;;;4.88;;
63818;SDS011;49970;54.976;73.248;2022-08-19T11:20:10;9.68;;;4.80;;
63818;SDS011;49970;54.976;73.248;2022-08-19T11:22:40;10.23;;;3.60;;
63818;SDS011;49970;54.976;73.248;2022-08-19T11:25:07;13.85;;;4.60;;
63818;SDS011;49970;54.976;73.248;2022-08-19T11:27:39;15.77;;;4.63;;
63818;SDS011;49970;54.976;73.248;2022-08-19T11:30:10;11.75;;;3.88;;
63818;SDS011;49970;54.976;73.248;2022-08-19T11:32:37;8.95;;;3.92;;
63818;SDS011;49970;54.976;73.248;2022-08-19T11:35:04;3.45;;;3.22;;
63818;SDS011;49970;54.976;73.248;2022-08-19T11:37:30;5.45;;;3.63;;
63818;SDS011;49970;54.976;73.248;2022-08-19T11:39:57;9.57;;;3.60;;
63818;SDS011;49970;54.976;73.248;2022-08-19T11:42:23;4.57;;;3.97;;
63818;SDS011;49970;54.976;73.248;2022-08-19T11:45:08;6.13;;;3.40;;
63818;SDS011;49970;54.976;73.248;2022-08-19T11:47:34;5.93;;;3.83;;
63818;SDS011;49970;54.976;73.248;2022-08-19T11:50:00;7.30;;;6.60;;
63818;SDS011;49970;54.976;73.248;2022-08-19T11:52:27;9.38;;;7.10;;
63818;SDS011;49970;54.976;73.248;2022-08-19T11:54:55;5.47;;;4.93;;
63818;SDS011;49970;54.976;73.248;2022-08-19T11:57:21;9.18;;;4.20;;
63818;SDS011;49970;54.976;73.248;2022-08-19T11:59:48;4.57;;;4.18;;
63818;SDS011;49970;54.976;73.248;2022-08-19T12:02:16;7.85;;;4.03;;
63818;SDS011;49970;54.976;73.248;2022-08-19T12:04:42;5.45;;;4.95;;
63818;SDS011;49970;54.976;73.248;2022-08-19T12:07:09;5.30;;;4.85;;
63818;SDS011;49970;54.976;73.248;2022-08-19T12:09:35;5.97;;;5.47;;
63818;SDS011;49970;54.976;73.248;2022-08-19T12:12:02;6.72;;;5.40;;
63818;SDS011;49970;54.976;73.248;2022-08-19T12:14:28;6.90;;;5.93;;
63818;SDS011;49970;54.976;73.248;2022-08-19T12:16:57;7.63;;;6.53;;
63818;SDS011;49970;54.976;73.248;2022-08-19T12:19:23;9.95;;;5.90;;
63818;SDS011;49970;54.976;73.248;2022-08-19T12:21:50;6.65;;;6.00;;
63818;SDS011;49970;54.976;73.248;2022-08-19T12:24:18;19.83;;;7.25;;
63818;SDS011;49970;54.976;73.248;2022-08-19T12:26:48;7.32;;;5.90;;
63818;SDS011;49970;54.976;73.248;2022-08-19T12:29:15;7.20;;;6.00;;
63818;SDS011;49970;54.976;73.248;2022-08-19T12:31:41;6.80;;;6.10;;
63818;SDS011;49970;54.976;73.248;2022-08-19T12:34:07;9.30;;;6.53;;
63818;SDS011;49970;54.976;73.248;2022-08-19T12:36:34;14.52;;;6.80;;
63818;SDS011;49970;54.976;73.248;2022-08-19T12:39:02;11.32;;;6.25;;
63818;SDS011;49970;54.976;73.248;2022-08-19T12:41:30;4.68;;;4.28;;
63818;SDS011;49970;54.976;73.248;2022-08-19T12:43:56;5.50;;;4.47;;
63818;SDS011;49970;54.976;73.248;2022-08-19T12:46:23;6.03;;;4.15;;
63818;SDS011;49970;54.976;73.248;2022-08-19T12:48:50;4.35;;;3.95;;
63818;SDS011;49970;54.976;73.248;2022-08-19T12:51:18;6.38;;;5.65;;
63818;SDS011;49970;54.976;73.248;2022-08-19T12:53:47;7.30;;;5.72;;
63818;SDS011;49970;54.976;73.248;2022-08-19T12:56:15;8.20;;;4.45;;
63818;SDS011;49970;54.976;73.248;2022-08-19T12:58:42;8.63;;;4.50;;
63818;SDS011;49970;54.976;73.248;2022-08-19T13:01:13;5.07;;;4.55;;
63818;SDS011;49970;54.976;73.248;2022-08-19T13:03:42;5.43;;;4.05;;
63818;SDS011;49970;54.976;73.248;2022-08-19T13:06:10;6.95;;;3.47;;
63818;SDS011;49970;54.976;73.248;2022-08-19T13:08:37;3.65;;;3.20;;
63818;SDS011;49970;54.976;73.248;2022-08-19T13:11:12;4.30;;;3.53;;
63818;SDS011;49970;54.976;73.248;2022-08-19T13:13:44;5.88;;;4.30;;
63818;SDS011;49970;54.976;73.248;2022-08-19T13:16:15;7.00;;;3.90;;
63818;SDS011;49970;54.976;73.248;2022-08-19T13:18:42;5.97;;;3.78;;
63818;SDS011;49970;54.976;73.248;2022-08-19T13:21:11;3.97;;;3.60;;
63818;SDS011;49970;54.976;73.248;2022-08-19T13:23:43;14.55;;;3.72;;
63818;SDS011;49970;54.976;73.248;2022-08-19T13:26:10;6.40;;;4.82;;
63818;SDS011;49970;54.976;73.248;2022-08-19T13:28:40;8.13;;;4.40;;
63818;SDS011;49970;54.976;73.248;2022-08-19T13:31:26;8.50;;;4.85;;
63818;SDS011;49970;54.976;73.248;2022-08-19T13:34:13;8.05;;;5.15;;
63818;SDS011;49970;54.976;73.248;2022-08-19T13:36:49;8.38;;;4.45;;
63818;SDS011;49970;54.976;73.248;2022-08-19T13:39:15;7.00;;;5.15;;
63818;SDS011;49970;54.976;73.248;2022-08-19T13:41:46;10.50;;;5.18;;
63818;SDS011;49970;54.976;73.248;2022-08-19T13:44:16;5.93;;;5.32;;
63818;SDS011;49970;54.976;73.248;2022-08-19T13:46:49;6.97;;;6.38;;
63818;SDS011;49970;54.976;73.248;2022-08-19T13:49:18;5.32;;;4.88;;
63818;SDS011;49970;54.976;73.248;2022-08-19T13:51:45;7.10;;;5.10;;
63818;SDS011;49970;54.976;73.248;2022-08-19T13:54:12;8.13;;;5.13;;
63818;SDS011;49970;54.976;73.248;2022-08-19T13:56:42;9.35;;;4.88;;
63818;SDS011;49970;54.976;73.248;2022-08-19T13:59:10;6.15;;;5.45;;
63818;SDS011;49970;54.976;73.248;2022-08-19T14:01:37;8.23;;;5.57;;
63818;SDS011;49970;54.976;73.248;2022-08-19T14:04:04;9.57;;;6.45;;
63818;SDS011;49970;54.976;73.248;2022-08-19T14:06:31;10.50;;;8.70;;
63818;SDS011;49970;54.976;73.248;2022-08-19T14:08:58;14.57;;;8.50;;
63818;SDS011;49970;54.976;73.248;2022-08-19T14:11:25;6.57;;;5.97;;
63818;SDS011;49970;54.976;73.248;2022-08-19T14:13:52;17.98;;;10.27;;
63818;SDS011;49970;54.976;73.248;2022-08-19T14:16:18;11.90;;;7.00;;
63818;SDS011;49970;54.976;73.248;2022-08-19T14:18:44;6.88;;;6.13;;
63818;SDS011;49970;54.976;73.248;2022-08-19T14:21:15;16.55;;;6.28;;
63818;SDS011;49970;54.976;73.248;2022-08-19T14:23:43;12.45;;;6.85;;
63818;SDS011;49970;54.976;73.248;2022-08-19T14:26:11;12.95;;;7.53;;
63818;SDS011;49970;54.976;73.248;2022-08-19T14:28:40;8.52;;;6.80;;
63818;SDS011;49970;54.976;73.248;2022-08-19T14:31:08;8.07;;;7.28;;
63818;SDS011;49970;54.976;73.248;2022-08-19T14:33:40;8.13;;;7.00;;
63818;SDS011;49970;54.976;73.248;2022-08-19T14:36:06;8.68;;;7.32;;
63818;SDS011;49970;54.976;73.248;2022-08-19T14:38:33;8.02;;;7.22;;
63818;SDS011;49970;54.976;73.248;2022-08-19T14:41:13;10.45;;;8.38;;
63818;SDS011;49970;54.976;73.248;2022-08-19T14:43:43;8.10;;;7.30;;
63818;SDS011;49970;54.976;73.248;2022-08-19T14:46:14;9.20;;;8.23;;
63818;SDS011;49970;54.976;73.248;2022-08-19T14:48:41;12.20;;;8.05;;
63818;SDS011;49970;54.976;73.248;2022-08-19T14:51:08;10.20;;;8.68;;
63818;SDS011;49970;54.976;73.248;2022-08-19T14:53:35;9.13;;;7.13;;
63818;SDS011;49970;54.976;73.248;2022-08-19T14:56:01;16.65;;;7.40;;
63818;SDS011;49970;54.976;73.248;2022-08-19T14:58:33;8.85;;;7.75;;
63818;SDS011;49970;54.976;73.248;2022-08-19T15:01:00;13.73;;;8.13;;
63818;SDS011;49970;54.976;73.248;2022-08-19T15:03:36;10.43;;;7.53;;
63818;SDS011;49970;54.976;73.248;2022-08-19T15:06:03;17.55;;;8.45;;